Date,TemperatureHighF,TemperatureAvgF,TemperatureLowF,DewpointHighF,DewpointAvgF,DewpointLowF,HumidityHigh,HumidityAvg,HumidityLow,PressureMaxIn,PressureMinIn,WindSpeedMaxMPH,WindSpeedAvgMPH,GustSpeedMaxMPH,PrecipitationSumIn
2013-6-1,97,84,76,75,73,72,89,71,46,29.75,29.63,4,1,11,0.00
2013-6-2,90,78,68,73,66,61,98,71,39,29.92,29.75,5,1,11,0.18
2013-6-3,96,78,62,70,64,58,98,66,34,29.85,29.67,2,0,6,0.00
2013-6-4,97,82,69,70,67,64,95,64,37,29.75,29.63,3,1,7,0.00
2013-6-5,97,82,70,71,68,65,93,65,39,29.75,29.59,2,1,8,0.00
2013-6-6,97,82,70,72,68,63,94,64,39,29.79,29.62,5,1,13,0.00
2013-6-7,88,77,68,67,61,55,89,62,35,29.86,29.72,3,1,8,0.00
2013-6-8,94,78,61,70,63,55,91,62,41,29.79,29.63,3,1,7,0.00
2013-6-9,91,79,67,75,72,65,99,79,55,29.83,29.69,8,1,15,0.51
2013-6-10,98,82,68,74,70,64,99,71,36,29.85,29.74,4,0,8,0.00
2013-6-11,97,83,73,75,71,64,96,71,44,29.88,29.78,5,1,10,0.00
2013-6-12,98,84,73,77,72,70,96,72,42,29.91,29.78,2,1,9,0.00
2013-6-13,98,83,73,77,72,66,97,72,43,29.92,29.78,4,1,8,0.00
2013-6-14,87,78,72,76,74,70,95,87,65,29.93,29.79,1,0,4,0.00
2013-6-15,88,81,76,77,74,72,95,80,61,29.99,29.88,2,0,6,0.00
2013-6-16,99,85,74,75,72,66,96,66,40,30.01,29.87,3,1,12,0.00
2013-6-17,100,86,76,75,71,65,88,65,36,29.99,29.82,4,1,12,0.00
2013-6-18,95,81,70,77,73,68,98,77,51,30.02,29.85,3,1,7,0.24
2013-6-19,100,85,73,76,72,68,97,67,42,29.96,29.87,3,1,10,0.00
2013-6-20,98,85,75,73,70,65,91,62,36,30.04,29.92,4,1,11,0.00
2013-6-21,100,86,74,74,69,62,93,61,33,30.07,29.94,4,1,11,0.00
2013-6-22,100,86,74,74,69,64,94,61,34,30.05,29.87,4,1,115,0.00
2013-6-23,96,85,75,74,68,61,91,61,36,29.99,29.88,3,1,10,0.00
2013-6-24,101,86,75,74,70,65,89,63,37,30.03,29.88,4,1,11,0.00
2013-6-25,103,87,77,74,70,64,88,59,33,30.00,29.84,4,2,14,0.00
2013-6-26,104,88,76,73,70,65,85,59,34,29.97,29.85,4,1,11,0.00
2013-6-27,106,88,76,73,68,59,86,55,23,30.04,29.89,3,1,8,0.00
2013-6-28,108,92,74,73,67,63,86,47,24,29.96,29.76,4,1,8,0.00
2013-6-29,109,92,73,72,64,52,78,46,15,29.85,29.69,5,1,9,0.00
2013-6-30,97,84,71,72,67,59,93,59,38,29.94,29.78,5,1,10,0.05